Time;durP1;ratioP1;P1;durP2;ratioP2;P2;SDS_P1;SDS_P2;PMS_P1;PMS_P2;Temp;Humidity;BMP_temperature;BMP_pressure;BME280_temperature;BME280_humidity;BME280_pressure;Samples;Min_cycle;Max_cycle;Signal;HPM_P1;HPM_P2
2022/06/13 00:00:32;;;;;;;879.65;832.75;;;19.70;99.90;;;19.85;74.68;100042.78;4994512;28;20679;-63
2022/06/13 00:03:01;;;;;;;884.85;837.17;;;19.80;99.90;;;19.77;75.50;100045.72;5012909;28;20203;-63
2022/06/13 00:05:35;;;;;;;908.75;859.13;;;19.70;99.90;;;19.73;75.36;100027.13;5021725;28;20655;-63
2022/06/13 00:08:04;;;;;;;858.10;813.08;;;19.60;99.90;;;19.71;75.84;100047.75;5021470;28;20207;-63
2022/06/13 00:10:33;;;;;;;899.15;850.08;;;19.50;99.90;;;19.65;75.33;100038.09;5017298;28;20198;-63
2022/06/13 00:13:00;;;;;;;861.78;815.28;;;19.60;99.90;;;19.63;76.02;100044.47;5018044;28;20205;-63
2022/06/13 00:15:29;;;;;;;852.00;806.92;;;19.50;99.90;;;19.60;75.80;100044.56;5014608;28;20210;-64
2022/06/13 00:17:57;;;;;;;859.53;813.78;;;19.40;99.90;;;19.59;75.20;100043.69;5002322;28;20209;-64
2022/06/13 00:20:25;;;;;;;841.55;797.40;;;19.40;99.90;;;19.37;75.10;100016.66;5042784;28;20201;-63
2022/06/13 00:22:52;;;;;;;861.28;815.22;;;19.40;99.90;;;19.44;75.35;100030.72;5013007;28;20198;-63
2022/06/13 00:25:21;;;;;;;862.63;817.17;;;19.20;99.90;;;19.36;74.92;100020.25;5018019;28;20206;-63
2022/06/13 00:27:49;;;;;;;846.60;802.17;;;19.20;99.90;;;19.34;75.35;100023.91;5029928;28;20198;-63
2022/06/13 00:30:17;;;;;;;849.10;804.30;;;19.20;99.90;;;19.27;75.69;100025.94;5011471;28;20213;-63
2022/06/13 00:32:45;;;;;;;847.05;802.13;;;19.10;99.90;;;19.18;76.09;100020.88;5031036;28;20244;-63
2022/06/13 00:35:13;;;;;;;846.63;801.58;;;19.00;99.90;;;19.19;76.10;100028.84;5018830;28;20701;-62
2022/06/13 00:37:41;;;;;;;849.88;805.08;;;19.00;99.90;;;19.11;75.77;100022.88;5021165;28;20209;-62
2022/06/13 00:40:10;;;;;;;835.67;791.38;;;19.00;99.90;;;19.06;76.38;100029.31;4997149;28;20210;-63
2022/06/13 00:42:41;;;;;;;839.08;794.08;;;18.90;99.90;;;19.02;76.64;100051.78;5031091;28;20221;-64
2022/06/13 00:45:27;;;;;;;828.15;784.95;;;18.90;99.90;;;18.89;77.54;100066.47;5009679;28;20673;-63
2022/06/13 00:47:55;;;;;;;842.05;796.90;;;18.90;99.90;;;18.83;77.58;100073.78;5022764;28;20205;-63
2022/06/13 00:50:29;;;;;;;846.05;800.63;;;18.80;99.90;;;18.77;77.90;100090.03;5009928;28;20225;-63
2022/06/13 00:53:07;;;;;;;873.58;825.50;;;18.70;99.90;;;18.68;77.94;100098.34;5011921;28;20217;-63
2022/06/13 00:56:04;;;;;;;867.70;820.30;;;18.60;99.90;;;18.65;78.53;100102.91;5025580;28;20206;-63
2022/06/13 00:58:39;;;;;;;876.60;826.95;;;18.50;99.90;;;18.55;78.90;100115.66;5019713;28;20233;-63
2022/06/13 01:01:07;;;;;;;871.03;821.72;;;18.40;99.90;;;18.44;78.93;100101.69;5025269;28;20237;-63
2022/06/13 01:03:36;;;;;;;865.55;816.85;;;18.40;99.90;;;18.44;79.04;100125.81;5027431;28;20214;-63
2022/06/13 01:06:06;;;;;;;861.70;813.53;;;18.30;99.90;;;18.35;79.54;100123.38;5011843;28;20206;-63
2022/06/13 01:08:37;;;;;;;859.92;811.63;;;18.20;99.90;;;18.33;80.02;100142.16;5016915;28;20217;-63
2022/06/13 01:11:17;;;;;;;849.95;802.70;;;18.20;99.90;;;18.19;80.09;100137.16;5015278;28;20698;-62
2022/06/13 01:14:09;;;;;;;850.53;802.85;;;18.10;99.90;;;18.26;81.06;100167.34;5011892;28;20205;-63
2022/06/13 01:16:43;;;;;;;845.70;798.20;;;18.10;99.90;;;18.21;80.42;100166.59;5026925;28;20221;-63
2022/06/13 01:20:07;;;;;;;841.08;793.78;;;18.00;99.90;;;18.12;80.38;100156.97;5041959;28;20221;-63
2022/06/13 01:23:12;;;;;;;832.95;785.33;;;18.00;99.90;;;18.11;80.55;100178.41;5028961;28;20236;-62
2022/06/13 01:26:03;;;;;;;831.95;783.75;;;17.90;99.90;;;18.06;80.76;100183.88;5033470;28;20202;-63
2022/06/13 01:28:56;;;;;;;827.03;780.47;;;17.80;99.90;;;17.95;81.68;100183.28;5041025;28;20214;-63
2022/06/13 01:31:43;;;;;;;833.45;785.17;;;17.80;99.90;;;18.06;81.61;100209.75;5039869;28;20248;-64
2022/06/13 01:34:39;;;;;;;821.95;775.78;;;17.80;99.90;;;17.90;81.99;100199.44;5021331;28;20673;-63
2022/06/13 01:37:26;;;;;;;826.17;778.47;;;17.80;99.90;;;17.90;82.34;100214.63;5041159;28;20713;-63
2022/06/13 01:40:28;;;;;;;827.33;779.53;;;17.70;99.90;;;17.87;81.65;100214.69;5017264;28;20217;-63
2022/06/13 01:43:18;;;;;;;825.20;776.70;;;17.70;99.90;;;17.92;82.11;100228.84;5033486;28;20221;-63
2022/06/13 01:46:00;;;;;;;821.42;772.83;;;17.70;99.90;;;17.79;81.55;100228.25;5026341;28;20241;-63
2022/06/13 01:48:40;;;;;;;818.58;770.67;;;17.60;99.90;;;17.81;81.61;100233.56;5028986;28;20240;-63
2022/06/13 01:51:35;;;;;;;825.15;776.65;;;17.60;99.90;;;17.79;82.51;100243.41;5027753;28;20226;-63
2022/06/13 01:54:35;;;;;;;820.17;771.67;;;17.50;99.90;;;17.64;82.72;100241.06;5030187;28;20214;-63
2022/06/13 01:57:15;;;;;;;816.63;767.47;;;17.50;99.90;;;17.61;83.66;100252.72;5029968;28;20201;-63
2022/06/13 01:59:54;;;;;;;811.88;762.70;;;17.40;99.90;;;17.44;83.40;100245.06;5042713;28;20698;-62
2022/06/13 02:03:02;;;;;;;811.47;763.38;;;17.30;99.90;;;17.43;83.91;100254.00;5026923;28;20222;-63
2022/06/13 02:05:45;;;;;;;805.63;756.95;;;17.20;99.90;;;17.41;85.24;100274.53;5014676;28;20227;-63
2022/06/13 02:08:35;;;;;;;809.20;759.70;;;17.20;99.90;;;17.39;84.88;100284.38;5027504;28;20225;-62
2022/06/13 02:11:25;;;;;;;804.35;754.95;;;17.20;99.90;;;17.27;84.90;100287.31;5006996;28;20230;-63
2022/06/13 02:14:12;;;;;;;800.35;750.03;;;17.10;99.90;;;17.21;86.36;100314.16;5033304;28;20214;-62
2022/06/13 02:16:49;;;;;;;795.00;745.22;;;17.00;99.90;;;17.22;86.11;100321.28;5027173;28;20203;-63
2022/06/13 02:19:34;;;;;;;790.20;741.92;;;17.00;99.90;;;17.15;86.00;100325.84;5014834;28;20233;-63
2022/06/13 02:22:24;;;;;;;796.47;747.30;;;17.00;99.90;;;17.21;86.46;100333.75;5006005;28;20310;-63
2022/06/13 02:25:00;;;;;;;792.63;742.97;;;17.00;99.90;;;17.04;87.08;100317.16;5044837;28;20210;-62
2022/06/13 02:27:35;;;;;;;787.28;738.70;;;16.90;99.90;;;17.12;87.25;100349.09;5030415;28;20205;-63
2022/06/13 02:30:13;;;;;;;793.95;741.85;;;16.90;99.90;;;17.03;88.09;100355.47;5031685;28;20209;-63
2022/06/13 02:32:52;;;;;;;787.40;737.63;;;16.80;99.90;;;17.05;87.97;100359.00;5034418;28;20284;-63
2022/06/13 02:35:29;;;;;;;785.25;733.83;;;16.80;99.90;;;17.10;88.12;100383.84;5019842;28;20619;-63
2022/06/13 02:38:17;;;;;;;788.58;739.15;;;16.80;99.90;;;17.04;88.29;100389.31;5025583;28;20232;-61
2022/06/13 02:40:52;;;;;;;780.72;730.13;;;16.80;99.90;;;17.05;89.03;100400.88;5054952;28;20708;-63
2022/06/13 02:43:26;;;;;;;778.80;730.15;;;;;;;16.99;89.35;100403.66;5019844;28;20204;-64
2022/06/13 02:46:12;;;;;;;770.90;722.15;;;16.70;99.90;;;16.80;89.10;100403.94;5047368;28;20210;-63
2022/06/13 02:49:13;;;;;;;771.72;722.72;;;16.60;99.90;;;16.89;89.34;100425.16;5014141;28;20201;-62
2022/06/13 02:52:16;;;;;;;760.05;710.63;;;16.60;99.90;;;16.77;89.73;100428.03;5011092;28;20229;-63
2022/06/13 02:54:58;;;;;;;760.70;709.55;;;16.60;99.90;;;16.77;90.77;100444.06;5022231;28;20580;-63
2022/06/13 02:57:46;;;;;;;761.20;711.10;;;16.50;99.90;;;16.75;91.10;100450.31;5013332;28;20214;-63
2022/06/13 03:00:52;;;;;;;761.67;712.20;;;16.40;99.90;;;16.67;91.78;100455.78;5067107;28;20234;-63
2022/06/13 03:03:22;;;;;;;749.15;699.67;;;;;;;16.70;91.67;100469.09;5030205;28;20198;-62
2022/06/13 03:06:31;;;;;;;760.30;710.35;;;16.40;99.90;;;16.62;92.21;100471.84;5004669;28;20202;-63
2022/06/13 03:09:08;;;;;;;750.55;700.97;;;16.30;99.90;;;16.49;92.28;100466.72;5023082;28;20217;-63
2022/06/13 03:11:57;;;;;;;751.10;702.53;;;16.30;99.90;;;16.52;92.76;100472.00;5026428;28;20229;-63
2022/06/13 03:14:56;;;;;;;749.80;698.83;;;16.30;99.90;;;16.56;92.85;100495.97;5051869;28;20210;-63
2022/06/13 03:17:54;;;;;;;749.80;699.97;;;16.20;99.90;;;16.39;93.27;100489.97;5028016;28;20210;-63
2022/06/13 03:20:31;;;;;;;741.20;692.50;;;16.20;99.90;;;16.39;93.01;100502.44;5028764;28;20717;-63
2022/06/13 03:23:10;;;;;;;750.55;701.65;;;16.20;99.90;;;16.27;94.14;100512.38;5005124;28;20209;-63
2022/06/13 03:25:51;;;;;;;733.00;685.58;;;16.10;99.90;;;16.28;95.16;100532.81;5034859;28;20206;-64
2022/06/13 03:28:29;;;;;;;735.92;688.08;;;;;;;16.30;94.46;100539.03;5046504;28;20212;-64
2022/06/13 03:31:05;;;;;;;740.65;691.88;;;16.10;99.90;;;16.27;94.46;100546.19;5031748;28;20715;-63
2022/06/13 03:33:41;;;;;;;744.10;694.83;;;15.90;99.90;;;16.21;94.96;100552.47;5017605;28;20206;-63
2022/06/13 03:36:23;;;;;;;746.75;697.33;;;16.00;99.90;;;16.31;94.62;100578.16;5031337;28;20217;-64
2022/06/13 03:38:59;;;;;;;730.35;682.80;;;16.00;99.90;;;16.30;94.62;100581.72;5037680;28;20237;-63
2022/06/13 03:41:36;;;;;;;739.47;689.83;;;15.90;99.90;;;16.22;94.72;100572.94;5018780;28;20233;-64
2022/06/13 03:44:28;;;;;;;737.38;688.95;;;16.00;99.90;;;16.17;94.77;100588.09;5017178;28;20206;-63
2022/06/13 03:47:03;;;;;;;740.15;689.75;;;16.00;99.90;;;16.15;94.79;100587.25;5021218;28;20218;-64
2022/06/13 03:49:35;;;;;;;735.40;684.60;;;15.90;99.90;;;16.17;94.80;100598.78;5025426;28;20289;-63
2022/06/13 03:52:06;;;;;;;730.05;680.55;;;15.90;99.90;;;16.06;95.49;100611.34;5034516;28;20228;-64
2022/06/13 03:54:43;;;;;;;724.78;674.40;;;15.90;99.90;;;16.02;94.69;100600.72;5003437;28;20217;-63
2022/06/13 03:57:22;;;;;;;731.40;680.22;;;15.80;99.90;;;16.12;94.86;100629.06;5045279;28;20201;-63
2022/06/13 03:59:56;;;;;;;726.67;676.45;;;15.90;99.90;;;16.17;94.84;100641.47;5017182;28;20214;-63
2022/06/13 04:02:32;;;;;;;729.22;678.03;;;15.90;99.90;;;16.06;94.65;100631.81;5011556;28;20225;-62
2022/06/13 04:05:00;;;;;;;721.08;672.25;;;15.90;99.90;;;16.05;94.50;100638.94;5043496;28;20198;-63
2022/06/13 04:07:43;;;;;;;722.72;673.15;;;15.90;99.90;;;16.11;94.46;100646.88;5006359;28;20208;-62
2022/06/13 04:10:15;;;;;;;726.35;674.25;;;15.80;99.90;;;16.02;94.60;100636.28;5006844;28;20214;-63
2022/06/13 04:13:11;;;;;;;716.58;665.05;;;15.80;99.90;;;16.07;94.59;100652.25;5045483;28;20243;-63
2022/06/13 04:15:55;;;;;;;709.92;658.45;;;15.80;99.90;;;16.07;93.97;100650.47;5023633;28;20214;-62
2022/06/13 04:19:02;;;;;;;707.17;655.78;;;15.80;99.90;;;16.13;93.20;100657.53;5029608;28;20197;-63
2022/06/13 04:22:00;;;;;;;706.25;655.10;;;15.90;99.90;;;16.20;93.46;100672.56;5008406;28;20619;-63
2022/06/13 04:25:04;;;;;;;703.08;652.30;;;15.80;99.90;;;16.15;93.24;100663.72;5012020;28;20210;-64
2022/06/13 04:27:49;;;;;;;700.17;648.83;;;15.90;99.90;;;16.16;93.28;100662.84;5012707;28;20288;-63
2022/06/13 04:30:22;;;;;;;704.33;653.75;;;15.80;99.90;;;16.16;93.29;100676.19;5043507;28;20225;-68
2022/06/13 04:33:26;;;;;;;714.38;662.97;;;15.90;99.90;;;16.14;94.17;100678.84;5013096;28;20223;-64
2022/06/13 04:35:56;;;;;;;704.00;654.05;;;15.80;99.90;;;16.15;94.43;100687.75;5024863;28;20208;-63
2022/06/13 04:38:25;;;;;;;712.60;662.72;;;15.90;99.90;;;16.16;95.20;100708.19;5025600;28;20697;-64
2022/06/13 04:41:03;;;;;;;716.25;667.53;;;15.90;99.90;;;16.21;95.11;100720.59;5051308;28;20249;-64
2022/06/13 04:43:41;;;;;;;711.33;662.75;;;15.90;99.90;;;16.25;94.66;100730.34;5034975;28;20669;-64
2022/06/13 04:46:17;;;;;;;715.55;666.88;;;15.90;99.90;;;16.24;94.38;100728.56;5024999;28;20205;-64
2022/06/13 04:48:52;;;;;;;719.13;668.90;;;15.90;99.90;;;16.31;93.97;100732.06;5027270;28;20210;-63
2022/06/13 04:51:40;;;;;;;709.95;662.33;;;15.90;99.90;;;16.36;93.64;100740.03;5007671;28;20313;-64
2022/06/13 04:54:29;;;;;;;708.20;661.03;;;15.90;99.90;;;16.46;93.43;100755.06;5036012;28;20206;-63
2022/06/13 04:56:59;;;;;;;719.50;671.15;;;16.00;99.90;;;16.51;92.89;100770.13;5018739;28;20205;-63
2022/06/13 04:59:28;;;;;;;727.45;678.75;;;16.10;99.90;;;16.56;92.30;100768.28;5016458;28;20218;-63
2022/06/13 05:01:57;;;;;;;726.65;678.25;;;16.10;99.90;;;16.63;91.86;100755.75;5017963;28;20214;-63
2022/06/13 05:04:30;;;;;;;727.38;680.42;;;16.20;99.90;;;16.64;91.79;100765.53;5033406;28;20217;-64
2022/06/13 05:07:08;;;;;;;731.60;682.65;;;16.20;99.90;;;16.56;92.34;100765.63;5007266;28;20594;-64
2022/06/13 05:10:00;;;;;;;729.33;680.80;;;16.30;99.90;;;16.75;91.79;100784.16;5032380;28;20220;-63
2022/06/13 05:12:40;;;;;;;720.45;672.95;;;16.40;99.90;;;16.84;90.82;100784.06;5034395;28;20718;-63
2022/06/13 05:15:10;;;;;;;732.25;682.00;;;;;;;16.84;90.54;100781.38;5020662;28;20217;-64
2022/06/13 05:18:22;;;;;;;731.72;682.75;;;16.40;99.90;;;16.85;90.30;100786.72;5019182;28;20213;-63
2022/06/13 05:21:05;;;;;;;725.92;677.40;;;16.40;99.90;;;16.97;89.57;100784.84;5019201;28;20234;-64
2022/06/13 05:23:36;;;;;;;730.17;682.08;;;16.60;99.90;;;16.97;88.58;100771.47;5019069;28;20205;-63
2022/06/13 05:26:05;;;;;;;733.70;685.90;;;16.70;99.90;;;17.12;88.13;100785.53;5044510;28;20222;-63
2022/06/13 05:28:35;;;;;;;741.75;693.72;;;16.70;99.90;;;17.19;88.11;100786.34;5035907;28;20214;-63
2022/06/13 05:31:10;;;;;;;746.08;697.85;;;16.80;99.90;;;17.28;87.08;100779.09;5014934;28;20225;-64
2022/06/13 05:33:41;;;;;;;751.00;703.35;;;16.90;99.90;;;17.38;86.72;100770.94;5005295;28;20201;-63
2022/06/13 05:36:17;;;;;;;753.63;705.70;;;16.50;99.90;;;17.32;87.61;100776.38;5008069;28;20202;-64
2022/06/13 05:38:52;;;;;;;762.95;714.00;;;16.90;99.90;;;17.40;88.00;100783.41;5038321;28;20217;-63
2022/06/13 05:41:20;;;;;;;759.17;711.63;;;17.00;99.90;;;17.57;87.97;100807.22;5001628;28;20233;-64
2022/06/13 05:43:49;;;;;;;766.90;718.90;;;;;;;17.49;87.55;100793.97;5010932;28;20210;-63
2022/06/13 05:46:30;;;;;;;766.10;718.83;;;17.20;99.90;;;17.76;86.75;100799.88;5033081;28;20210;-63
2022/06/13 05:48:59;;;;;;;763.20;716.33;;;17.30;99.90;;;17.85;84.98;100791.69;5044596;28;20202;-63
2022/06/13 05:51:27;;;;;;;778.75;730.38;;;;;;;17.83;83.59;100756.94;5027294;28;20229;-63
2022/06/13 05:53:58;;;;;;;783.72;735.17;;;17.50;99.90;;;18.04;83.42;100774.44;5005248;28;20213;-63
2022/06/13 05:56:26;;;;;;;788.40;738.20;;;17.50;99.90;;;17.96;81.69;100732.66;5022642;28;20213;-63
2022/06/13 05:58:55;;;;;;;789.00;739.75;;;17.60;99.90;;;18.18;79.95;100718.00;5021569;28;20210;-63
2022/06/13 06:01:23;;;;;;;791.45;742.03;;;17.60;99.90;;;18.01;79.70;100687.97;5001558;28;20674;-63
2022/06/13 06:03:51;;;;;;;789.63;739.92;;;17.60;99.90;;;18.17;80.63;100708.22;5056003;28;20210;-63
2022/06/13 06:06:28;;;;;;;802.30;752.22;;;17.80;99.90;;;18.35;80.02;100715.06;5018594;28;20203;-64
2022/06/13 06:08:56;;;;;;;800.33;749.53;;;17.90;99.90;;;18.22;79.70;100693.88;5000274;28;20220;-64
2022/06/13 06:11:27;;;;;;;814.75;761.22;;;17.90;99.90;;;18.21;80.01;100696.56;5023170;28;20248;-64
2022/06/13 06:13:56;;;;;;;835.25;777.92;;;;;;;18.42;81.04;100716.72;5045045;28;20209;-64
2022/06/13 06:16:26;;;;;;;829.42;774.22;;;18.00;99.90;;;18.40;81.60;100723.91;5028836;28;20690;-63
2022/06/13 06:18:55;;;;;;;834.47;779.08;;;;;;;18.49;82.13;100729.06;5007617;28;20206;-64
2022/06/13 06:21:23;;;;;;;837.72;782.97;;;18.20;99.90;;;18.54;82.55;100748.63;5006894;28;20234;-64
2022/06/13 06:23:51;;;;;;;838.28;783.67;;;;;;;18.71;81.41;100737.63;5012940;28;20202;-63
2022/06/13 06:26:23;;;;;;;841.72;787.25;;;18.30;99.90;;;18.97;81.40;100751.38;5022053;28;20571;-64
2022/06/13 06:28:51;;;;;;;845.45;790.13;;;18.60;99.90;;;19.07;81.90;100765.47;5008194;28;20300;-64
2022/06/13 06:31:20;;;;;;;859.33;802.30;;;;;;;19.07;81.67;100755.63;5006186;28;20356;-64
2022/06/13 06:33:48;;;;;;;860.20;803.83;;;;;;;18.61;78.57;100666.34;4991750;28;20260;-64
2022/06/13 06:36:16;;;;;;;856.53;801.00;;;18.60;99.90;;;18.87;79.72;100701.56;5021313;28;20661;-63
2022/06/13 06:38:45;;;;;;;859.13;803.88;;;18.60;99.90;;;18.98;79.50;100701.34;4994530;28;20594;-64
2022/06/13 06:41:14;;;;;;;857.70;802.83;;;;;;;19.13;80.11;100730.50;5006479;28;20241;-64
2022/06/13 06:43:42;;;;;;;869.40;812.13;;;;;;;19.31;80.51;100742.63;5028311;28;20229;-64
2022/06/13 06:46:12;;;;;;;872.78;815.20;;;19.00;99.90;;;19.50;79.82;100742.22;5041719;28;20225;-64
2022/06/13 06:48:41;;;;;;;875.80;818.67;;;19.20;99.90;;;19.56;77.34;100713.53;5000388;28;20457;-64
2022/06/13 06:51:13;;;;;;;885.58;826.83;;;19.80;99.90;;;19.81;77.08;100714.69;5022037;28;20229;-64
2022/06/13 07:02:03;;;;;;;902.42;841.75;;;;;;;19.93;71.39;100574.81;5030831;28;20706;-64
2022/06/13 07:04:31;;;;;;;905.25;844.83;;;19.70;99.90;;;20.00;71.39;100576.41;5015580;28;20225;-65
2022/06/13 07:06:59;;;;;;;914.00;852.90;;;;;;;20.12;71.45;100575.19;5028133;28;20202;-64
2022/06/13 07:09:27;;;;;;;912.63;851.95;;;;;;;20.39;70.91;100592.34;4967771;28;1163013;-64
2022/06/13 07:11:56;;;;;;;917.63;857.97;;;;;;;20.30;70.73;100544.25;5022657;28;20223;-64
2022/06/13 07:14:33;;;;;;;928.55;867.00;;;20.20;99.90;;;20.17;70.38;100503.44;5026016;28;20583;-64
2022/06/13 07:17:05;;;;;;;910.83;851.03;;;20.20;99.90;;;20.35;71.83;100540.50;5016800;28;20206;-64
2022/06/13 07:19:33;;;;;;;935.63;874.08;;;;;;;20.78;70.83;100571.47;5004010;28;20253;-64
2022/06/13 07:22:03;;;;;;;937.47;876.38;;;20.80;99.90;;;20.93;71.31;100575.53;5035608;28;20248;-64
2022/06/13 07:24:31;;;;;;;975.92;908.55;;;;;;;20.81;69.32;100523.03;5007778;28;20217;-64
2022/06/13 07:27:00;;;;;;;945.25;884.53;;;;;;;20.72;69.16;100497.31;5022352;28;20210;-64
2022/06/13 07:29:28;;;;;;;966.45;904.03;;;;;;;20.88;68.90;100500.41;5011305;28;20206;-64
2022/06/13 07:32:07;;;;;;;960.03;899.17;;;20.90;99.90;;;20.89;68.76;100499.47;5008308;28;20222;-64
2022/06/13 07:34:37;;;;;;;960.97;898.60;;;21.00;99.90;;;21.15;68.62;100513.88;5021427;28;20208;-64
2022/06/13 07:37:09;;;;;;;964.47;902.75;;;21.10;99.90;;;21.15;68.72;100506.69;5009740;28;20206;-64
2022/06/13 07:39:37;;;;;;;970.42;907.95;;;;;;;21.17;68.00;100496.75;5017725;28;20216;-64
2022/06/13 07:42:15;;;;;;;976.22;913.35;;;21.30;99.90;;;21.38;67.92;100503.25;4990955;28;20234;-64
2022/06/13 07:44:43;;;;;;;983.67;920.67;;;21.60;99.90;;;21.62;67.63;100491.63;5020818;28;20210;-64
2022/06/13 07:47:17;;;;;;;990.00;927.72;;;21.70;99.90;;;21.47;68.50;100470.66;5004514;28;20217;-64
2022/06/13 07:49:45;;;;;;;997.47;934.88;;;;;;;21.68;67.54;100463.63;5029902;28;20217;-64
2022/06/13 07:52:13;;;;;;;1004.90;944.22;;;;;;;21.97;67.96;100484.97;5018404;28;20228;-64
2022/06/13 07:54:41;;;;;;;1010.70;949.67;;;;;;;21.32;66.17;100352.81;5027137;28;20218;-64
2022/06/13 07:57:11;;;;;;;1008.30;947.05;;;21.70;99.90;;;21.24;67.31;100353.09;5012911;28;20210;-64
2022/06/13 07:59:41;;;;;;;1017.08;953.67;;;22.00;99.90;;;21.93;66.96;100424.09;5020290;28;20220;-64
2022/06/13 08:02:17;;;;;;;1011.10;950.63;;;22.10;99.90;;;21.97;64.74;100381.78;5022509;28;20233;-64
2022/06/13 08:04:45;;;;;;;1023.72;961.03;;;22.30;99.90;;;22.26;64.54;100410.34;5008562;28;20205;-64
2022/06/13 08:07:26;;;;;;;1020.22;957.78;;;22.60;99.90;;;22.41;65.01;100404.34;5022789;28;20222;-64
2022/06/13 08:09:55;;;;;;;1027.95;965.30;;;22.70;99.90;;;22.37;63.12;100350.63;5009695;28;20229;-65
2022/06/13 08:12:26;;;;;;;1022.25;960.85;;;22.50;99.90;;;22.28;62.87;100314.16;5035771;28;20229;-64
2022/06/13 08:14:54;;;;;;;1023.47;962.58;;;;;;;22.20;62.80;100284.84;5031151;28;20214;-64
2022/06/13 08:17:22;;;;;;;1025.43;964.92;;;22.90;99.90;;;22.52;62.28;100293.41;5025316;28;20213;-64
2022/06/13 08:19:50;;;;;;;1031.20;969.58;;;23.00;99.90;;;22.40;62.60;100283.13;4996524;28;20196;-64
2022/06/13 08:22:19;;;;;;;1039.75;976.90;;;22.90;99.90;;;22.27;62.24;100224.38;5011215;28;20237;-64
2022/06/13 08:24:47;;;;;;;1037.30;976.17;;;22.90;99.90;;;22.41;60.35;100210.31;5027746;28;20206;-63
2022/06/13 08:27:15;;;;;;;1025.95;965.05;;;22.80;99.90;;;22.57;60.44;100215.94;5023445;28;20205;-64
2022/06/13 08:29:43;;;;;;;1033.30;970.83;;;;;;;21.74;59.61;100073.13;4993019;28;20201;-64
2022/06/13 08:32:12;;;;;;;1043.40;977.78;;;;;;;22.23;60.00;100138.38;5021390;28;20712;-64
2022/06/13 08:34:40;;;;;;;1048.75;983.22;;;22.60;99.90;;;22.22;59.72;100133.94;4997041;28;20205;-64
2022/06/13 08:37:09;;;;;;;1054.03;989.20;;;;;;;22.62;59.72;100171.66;5025826;28;20232;-64
2022/06/13 08:39:37;;;;;;;1049.32;985.13;;;;;;;22.92;59.17;100192.81;5022391;28;20209;-64
2022/06/13 08:42:48;;;;;;;1058.93;990.78;;;23.20;99.90;;;22.89;57.19;100133.63;5013442;28;20705;-64
2022/06/13 08:45:18;;;;;;;1060.22;993.97;;;;;;;22.62;56.40;100044.97;5000007;28;20201;-64
2022/06/13 08:48:00;;;;;;;1055.63;990.35;;;23.30;99.90;;;23.18;56.00;100103.47;5001368;28;20217;-64
2022/06/13 08:50:37;;;;;;;1048.07;984.40;;;;;;;22.92;56.84;100039.13;5019527;28;20210;-64
2022/06/13 08:53:21;;;;;;;1054.75;990.20;;;20.70;99.90;;;23.34;57.36;100102.72;5024756;28;20213;-64
2022/06/13 08:55:53;;;;;;;1060.10;992.58;;;23.90;99.90;;;23.34;57.28;100057.72;5023829;28;20198;-64
2022/06/13 08:58:42;;;;;;;1063.63;996.03;;;23.90;99.70;;;23.34;54.29;99984.88;4992219;28;20197;-64
2022/06/13 09:01:31;;;;;;;1065.85;997.47;;;23.80;99.80;;;22.97;55.25;99935.47;5019276;28;20702;-64
2022/06/13 09:04:09;;;;;;;1055.70;992.85;;;23.80;99.90;;;23.09;57.96;99990.63;5011648;28;20188;-63
2022/06/13 09:06:47;;;;;;;1068.60;998.78;;;23.50;99.90;;;23.04;56.24;99952.22;5018586;28;20209;-64
2022/06/13 09:09:20;;;;;;;1065.00;997.45;;;23.90;99.90;;;24.08;55.82;100084.63;5025460;28;20217;-64
2022/06/13 09:12:17;;;;;;;1070.45;999.42;;;23.50;99.90;;;23.35;55.73;99964.16;5029319;28;20254;-63
2022/06/13 09:15:13;;;;;;;1068.68;998.97;;;23.80;99.90;;;23.62;55.76;99989.81;5009775;28;20217;-64
2022/06/13 09:17:54;;;;;;;1072.00;999.00;;;24.20;99.20;;;23.44;54.78;99934.03;5015506;28;20206;-64
2022/06/13 09:20:31;;;;;;;1076.75;999.90;;;24.20;98.20;;;23.55;54.26;99924.47;5025774;28;20210;-63
2022/06/13 09:23:14;;;;;;;1073.45;999.53;;;23.90;97.50;;;23.39;54.45;99882.97;5040058;28;20712;-63
2022/06/13 09:25:44;;;;;;;1082.22;999.90;;;;;;;24.45;54.00;100021.41;5022400;28;20217;-64
2022/06/13 09:28:46;;;;;;;1081.75;999.90;;;24.60;98.00;;;24.09;53.69;99937.78;5036430;28;20209;-64
2022/06/13 09:31:31;;;;;;;1085.82;999.90;;;25.00;97.40;;;24.50;54.44;99990.47;5054233;28;20240;-64
2022/06/13 09:34:24;;;;;;;1094.15;999.90;;;25.40;98.30;;;24.20;55.62;99938.94;4992638;28;20201;-63
2022/06/13 09:37:09;;;;;;;1087.93;999.90;;;25.30;96.20;;;24.29;53.71;99924.09;5027254;28;20221;-63
2022/06/13 09:39:38;;;;;;;1082.93;999.90;;;25.70;97.60;;;24.57;53.83;99953.16;5012705;28;20208;-64
2022/06/13 09:42:13;;;;;;;1097.70;999.90;;;26.00;99.40;;;24.70;55.85;99999.31;5006386;28;20230;-64
2022/06/13 09:45:08;;;;;;;1076.70;999.90;;;25.90;96.60;;;24.55;55.59;99944.25;5022176;28;20212;-64
2022/06/13 09:47:59;;;;;;;1075.53;999.90;;;25.90;94.30;;;24.28;54.01;99854.78;5023968;28;20208;-64
2022/06/13 09:50:58;;;;;;;994.45;935.35;;;25.20;96.70;;;23.56;57.07;99820.06;5041157;28;20209;-64
2022/06/13 09:53:50;;;;;;;1050.05;987.45;;;25.30;96.70;;;24.05;55.20;99874.97;5002983;28;20212;-64
2022/06/13 09:56:33;;;;;;;1105.55;999.90;;;25.10;95.20;;;23.87;53.22;99792.25;5017861;28;20205;-64
2022/06/13 09:59:01;;;;;;;1095.38;999.90;;;;;;;23.47;53.75;99732.34;5054005;28;20206;-63
2022/06/13 10:01:37;;;;;;;1094.40;999.90;;;24.60;96.20;;;23.98;55.55;99838.44;5074482;28;20236;-64
2022/06/13 10:04:40;;;;;;;1115.80;999.90;;;25.40;98.30;;;25.33;53.95;99999.34;5037629;28;20206;-64
2022/06/13 10:07:17;;;;;;;1107.10;999.90;;;25.60;94.30;;;25.18;52.43;99925.34;5033275;28;20658;-64
2022/06/13 10:09:50;;;;;;;1048.25;986.00;;;25.70;93.90;;;25.14;53.20;99907.53;5035168;28;20220;-64
2022/06/13 10:12:33;;;;;;;1067.97;999.50;;;25.80;92.90;;;25.11;52.04;99867.13;5038375;28;20235;-64
2022/06/13 10:15:46;;;;;;;1086.30;999.90;;;25.70;93.00;;;25.17;52.02;99853.25;5042151;28;20208;-64
2022/06/13 10:18:43;;;;;;;1070.75;999.90;;;25.80;92.00;;;24.90;51.81;99769.19;5017548;28;20210;-64
2022/06/13 10:21:42;;;;;;;1119.00;999.90;;;26.30;94.90;;;26.61;52.93;99999.66;5019346;28;20235;-64
2022/06/13 10:24:24;;;;;;;1017.45;957.78;;;26.90;92.20;;;26.34;52.21;99923.66;5002328;28;20190;-64
2022/06/13 10:27:31;;;;;;;929.25;873.20;;;26.70;89.80;;;24.68;51.62;99653.31;5011415;28;20206;-64
2022/06/13 10:30:19;;;;;;;873.78;819.42;;;25.90;91.00;;;25.17;52.04;99778.34;4999659;28;20665;-63
2022/06/13 10:32:57;;;;;;;799.50;749.60;;;25.60;91.30;;;25.04;51.23;99730.50;5007125;28;20225;-64
2022/06/13 10:35:49;;;;;;;808.60;757.53;;;25.90;90.80;;;25.25;51.41;99752.66;5036518;28;20689;-64
2022/06/13 10:38:26;;;;;;;798.97;749.25;;;25.90;90.90;;;25.93;50.93;99818.72;5010407;28;20212;-64
2022/06/13 10:40:54;;;;;;;768.78;719.15;;;26.30;88.30;;;25.48;50.32;99714.19;5018498;28;20238;-64
2022/06/13 10:43:22;;;;;;;728.72;683.10;;;26.40;90.00;;;24.81;51.40;99629.97;5022759;28;20579;-64
2022/06/13 10:45:50;;;;;;;702.88;657.85;;;26.40;89.70;;;24.72;51.57;99618.88;5014182;28;20216;-64
2022/06/13 10:48:50;;;;;;;696.33;650.95;;;26.10;89.10;;;24.43;51.25;99578.25;5010919;28;20576;-63